createdAt,value
2023-05-21T00:00:17.782Z,16.00
2023-05-21T00:02:45.758Z,16.00
2023-05-21T00:05:15.500Z,16.00
2023-05-21T00:07:45.827Z,16.00
2023-05-21T00:10:14.438Z,16.00
2023-05-21T00:12:42.605Z,16.00
2023-05-21T00:15:11.491Z,15.90
2023-05-21T00:17:40.089Z,15.90
2023-05-21T00:20:09.971Z,15.90
2023-05-21T00:22:37.924Z,15.90
2023-05-21T00:25:08.052Z,15.90
2023-05-21T00:27:36.112Z,15.80
2023-05-21T00:30:04.667Z,15.90
2023-05-21T00:32:32.652Z,15.80
2023-05-21T00:35:00.688Z,15.80
2023-05-21T00:37:29.729Z,15.80
2023-05-21T00:39:58.410Z,15.80
2023-05-21T00:42:30.550Z,15.80
2023-05-21T00:44:58.779Z,15.80
2023-05-21T00:47:29.620Z,15.80
2023-05-21T00:49:57.697Z,15.80
2023-05-21T00:52:26.928Z,15.80
2023-05-21T00:54:56.135Z,15.80
2023-05-21T00:57:27.039Z,15.80
2023-05-21T00:59:56.390Z,15.80
2023-05-21T01:02:26.033Z,15.80
2023-05-21T01:04:56.324Z,15.80
2023-05-21T01:07:24.369Z,15.80
2023-05-21T01:09:54.144Z,15.80
2023-05-21T01:12:22.970Z,15.80
2023-05-21T01:14:51.154Z,15.70
2023-05-21T01:17:24.247Z,15.70
2023-05-21T01:19:54.733Z,15.70
2023-05-21T01:22:24.834Z,15.80
2023-05-21T01:24:56.094Z,15.80
2023-05-21T01:27:24.004Z,15.70
2023-05-21T01:29:51.968Z,15.70
2023-05-21T01:32:27.125Z,15.70
2023-05-21T01:35:01.605Z,15.70
2023-05-21T01:37:35.974Z,15.70
2023-05-21T01:40:12.214Z,15.60
2023-05-21T01:42:43.629Z,15.60
2023-05-21T01:45:12.736Z,15.60
2023-05-21T01:47:42.086Z,15.60
2023-05-21T01:50:11.266Z,15.60
2023-05-21T01:52:39.282Z,15.60
2023-05-21T01:55:09.116Z,15.50
2023-05-21T01:57:37.037Z,15.50
2023-05-21T02:00:05.937Z,15.50
2023-05-21T02:02:33.950Z,15.50
2023-05-21T02:05:01.890Z,15.50
2023-05-21T02:07:32.569Z,15.50
2023-05-21T02:10:00.614Z,15.50
2023-05-21T02:12:29.968Z,15.50
2023-05-21T02:14:58.388Z,15.50
2023-05-21T02:17:26.878Z,15.50
2023-05-21T02:19:54.794Z,15.50
2023-05-21T02:22:22.797Z,15.50
2023-05-21T02:24:50.721Z,15.50
2023-05-21T02:27:18.620Z,15.50
2023-05-21T02:29:47.997Z,15.50
2023-05-21T02:32:16.899Z,15.50
2023-05-21T02:34:47.331Z,15.40
2023-05-21T02:37:15.532Z,15.40
2023-05-21T02:39:43.396Z,15.40
2023-05-21T02:42:11.367Z,15.40
2023-05-21T02:44:39.251Z,15.50
2023-05-21T02:47:10.229Z,15.50
2023-05-21T02:49:38.234Z,15.50
2023-05-21T02:52:06.590Z,15.40
2023-05-21T02:54:34.512Z,15.40
2023-05-21T02:57:02.470Z,15.40
2023-05-21T02:59:30.345Z,15.40
2023-05-21T03:01:58.305Z,15.40
2023-05-21T03:04:28.367Z,15.40
2023-05-21T03:06:57.347Z,15.40
2023-05-21T03:09:25.579Z,15.40
2023-05-21T03:11:53.508Z,15.40
2023-05-21T03:14:21.827Z,15.40
2023-05-21T03:16:51.347Z,15.40
2023-05-21T03:19:20.954Z,15.40
2023-05-21T03:21:50.599Z,15.40
2023-05-21T03:24:18.758Z,15.40
2023-05-21T03:26:48.121Z,15.40
2023-05-21T03:29:16.079Z,15.30
2023-05-21T03:31:44.018Z,15.40
2023-05-21T03:34:12.202Z,15.40
2023-05-21T03:36:40.199Z,15.40
2023-05-21T03:39:09.514Z,15.40
2023-05-21T03:41:37.428Z,15.40
2023-05-21T03:44:05.915Z,15.40
2023-05-21T03:46:33.956Z,15.40
2023-05-21T03:49:02.241Z,15.40
2023-05-21T03:51:31.546Z,15.40
2023-05-21T03:54:00.202Z,15.40
2023-05-21T03:56:29.522Z,15.40
2023-05-21T03:58:57.514Z,15.40
2023-05-21T04:01:25.494Z,15.40
2023-05-21T04:03:53.742Z,15.40
2023-05-21T04:06:22.017Z,15.40
2023-05-21T04:08:49.959Z,15.30
2023-05-21T04:11:17.955Z,15.30
2023-05-21T04:13:48.172Z,15.30
2023-05-21T04:16:19.245Z,15.30
2023-05-21T04:18:47.845Z,15.40
2023-05-21T04:21:16.310Z,15.40
2023-05-21T04:23:44.268Z,15.30
2023-05-21T04:26:12.787Z,15.30
2023-05-21T04:28:43.806Z,15.30
2023-05-21T04:31:14.001Z,15.30
2023-05-21T04:33:45.885Z,15.30
2023-05-21T04:36:17.072Z,15.30
2023-05-21T04:38:44.986Z,15.30
2023-05-21T04:41:14.802Z,15.30
2023-05-21T04:43:44.052Z,15.30
2023-05-21T04:46:13.927Z,15.30
2023-05-21T04:48:42.249Z,15.40
2023-05-21T04:51:10.151Z,15.40
2023-05-21T04:53:38.801Z,15.40
2023-05-21T04:56:07.236Z,15.40
2023-05-21T04:58:35.131Z,15.40
2023-05-21T05:01:04.171Z,15.40
2023-05-21T05:03:33.564Z,15.40
2023-05-21T05:06:04.247Z,15.40
2023-05-21T05:08:32.509Z,15.50
2023-05-21T05:11:00.419Z,15.50
2023-05-21T05:13:28.277Z,15.50
2023-05-21T05:15:57.520Z,15.50
2023-05-21T05:18:25.347Z,15.50
2023-05-21T05:20:54.555Z,15.40
2023-05-21T05:23:22.412Z,15.50
2023-05-21T05:25:50.296Z,15.50
2023-05-21T05:28:18.225Z,15.50
2023-05-21T05:30:46.135Z,15.50
2023-05-21T05:33:14.075Z,15.50
2023-05-21T05:35:41.906Z,15.50
2023-05-21T05:38:11.427Z,15.60
2023-05-21T05:40:39.597Z,15.60
2023-05-21T05:43:07.900Z,15.70
2023-05-21T05:45:36.010Z,15.80
2023-05-21T05:48:04.206Z,15.80
2023-05-21T05:50:32.135Z,15.90
2023-05-21T05:53:00.084Z,15.90
2023-05-21T05:55:29.320Z,16.10
2023-05-21T05:57:57.275Z,16.20
2023-05-21T06:00:25.208Z,16.30
2023-05-21T06:02:53.237Z,16.40
2023-05-21T06:05:21.405Z,16.50
2023-05-21T06:07:49.388Z,16.60
2023-05-21T06:10:17.363Z,16.60
2023-05-21T06:12:46.702Z,16.70
2023-05-21T06:15:16.522Z,16.80
2023-05-21T06:17:44.444Z,16.90
2023-05-21T06:20:13.493Z,17.00
2023-05-21T06:22:41.605Z,17.00
2023-05-21T06:25:10.925Z,17.10
2023-05-21T06:27:39.202Z,17.30
2023-05-21T06:30:09.696Z,17.30
2023-05-21T06:32:37.761Z,17.40
2023-05-21T06:35:06.922Z,17.50
2023-05-21T06:37:34.889Z,17.70
2023-05-21T06:40:03.200Z,17.70
2023-05-21T06:42:31.089Z,17.80
2023-05-21T06:44:59.016Z,18.00
2023-05-21T06:47:28.340Z,18.20
2023-05-21T06:49:56.255Z,18.30
2023-05-21T06:52:24.091Z,18.40
2023-05-21T06:54:52.016Z,18.40
2023-05-21T06:57:19.994Z,18.50
2023-05-21T06:59:47.988Z,18.60
2023-05-21T07:02:16.182Z,18.70
2023-05-21T07:04:45.797Z,18.80
2023-05-21T07:07:13.781Z,18.80
2023-05-21T07:09:42.803Z,18.90
2023-05-21T07:12:11.113Z,19.00
2023-05-21T07:14:39.200Z,19.10
2023-05-21T07:17:07.873Z,19.10
2023-05-21T07:19:35.759Z,19.10
2023-05-21T07:22:06.033Z,19.10
2023-05-21T07:24:33.932Z,19.20
2023-05-21T07:27:04.650Z,19.20
2023-05-21T07:29:36.748Z,19.30
2023-05-21T07:32:04.914Z,19.40
2023-05-21T07:34:32.986Z,19.50
2023-05-21T07:37:01.024Z,19.60
2023-05-21T07:39:30.245Z,19.60
2023-05-21T07:41:58.142Z,19.80
2023-05-21T07:44:26.350Z,20.00
2023-05-21T07:46:54.217Z,20.00
2023-05-21T07:49:22.195Z,20.10
2023-05-21T07:51:50.638Z,20.30
2023-05-21T07:54:19.832Z,20.40
2023-05-21T07:56:49.197Z,20.60
2023-05-21T07:59:18.127Z,20.80
2023-05-21T08:01:46.329Z,21.10
2023-05-21T08:04:14.703Z,21.20
2023-05-21T08:06:42.701Z,21.40
2023-05-21T08:09:10.610Z,21.70
2023-05-21T08:11:38.621Z,21.80
2023-05-21T08:14:07.942Z,22.10
2023-05-21T08:16:37.013Z,22.50
2023-05-21T08:19:05.178Z,22.70
2023-05-21T08:21:34.595Z,22.90
2023-05-21T08:24:03.019Z,23.40
2023-05-21T08:26:31.352Z,23.70
2023-05-21T08:28:59.498Z,24.00
2023-05-21T08:31:28.857Z,24.20
2023-05-21T08:33:57.621Z,24.20
2023-05-21T08:36:26.232Z,24.50
2023-05-21T08:38:54.394Z,24.60
2023-05-21T08:41:24.262Z,24.70
2023-05-21T08:43:57.769Z,24.60
2023-05-21T08:46:26.598Z,24.90
2023-05-21T08:48:56.983Z,25.20
2023-05-21T08:51:24.988Z,25.50
2023-05-21T08:53:52.872Z,25.60
2023-05-21T08:56:21.939Z,25.90
2023-05-21T08:58:50.409Z,26.10
2023-05-21T09:01:19.437Z,26.20
2023-05-21T09:03:49.554Z,26.20
2023-05-21T09:06:19.019Z,26.20
2023-05-21T09:08:53.862Z,26.10
2023-05-21T09:11:21.944Z,26.20
2023-05-21T09:13:50.824Z,26.50
2023-05-21T09:16:18.839Z,26.70
2023-05-21T09:18:46.906Z,26.70
2023-05-21T09:21:29.562Z,26.90
2023-05-21T09:23:58.647Z,26.90
2023-05-21T09:26:27.481Z,26.90
2023-05-21T09:29:00.365Z,26.90
2023-05-21T09:31:30.421Z,26.70
2023-05-21T09:33:58.515Z,26.20
2023-05-21T09:36:29.378Z,26.00
2023-05-21T09:38:59.832Z,25.70
2023-05-21T09:41:39.280Z,25.70
2023-05-21T09:44:07.784Z,25.60
2023-05-21T09:46:40.539Z,25.40
2023-05-21T09:49:09.168Z,25.10
2023-05-21T09:51:40.820Z,24.90
2023-05-21T09:54:11.751Z,25.00
2023-05-21T09:56:41.213Z,25.20
2023-05-21T09:59:09.340Z,25.60
2023-05-21T10:01:38.764Z,26.10
2023-05-21T10:04:08.815Z,26.60
2023-05-21T10:06:44.379Z,27.20
2023-05-21T10:09:13.261Z,27.80
2023-05-21T10:11:45.874Z,28.30
2023-05-21T10:14:17.536Z,28.70
2023-05-21T10:16:46.036Z,28.90
2023-05-21T10:19:15.662Z,28.90
2023-05-21T10:21:45.806Z,29.00
2023-05-21T10:24:14.719Z,29.20
2023-05-21T10:26:42.611Z,29.10
2023-05-21T10:29:12.003Z,29.30
2023-05-21T10:31:41.109Z,29.30
2023-05-21T10:34:09.212Z,29.40
2023-05-21T10:36:38.934Z,29.10
2023-05-21T10:39:09.527Z,29.00
2023-05-21T10:41:58.425Z,28.80
2023-05-21T10:44:37.681Z,28.90
2023-05-21T10:47:32.076Z,29.00
2023-05-21T10:50:22.108Z,29.10
2023-05-21T10:53:03.168Z,29.40
2023-05-21T10:55:43.937Z,29.70
2023-05-21T10:58:59.526Z,29.90
2023-05-21T11:01:29.878Z,30.20
2023-05-21T11:03:58.758Z,30.00
2023-05-21T11:06:27.792Z,29.90
2023-05-21T11:08:56.024Z,29.70
2023-05-21T11:11:46.235Z,29.30
2023-05-21T11:14:35.493Z,28.70
2023-05-21T11:17:04.795Z,28.30
2023-05-21T11:19:37.815Z,27.70
2023-05-21T11:22:10.521Z,27.50
2023-05-21T11:24:39.968Z,27.70
2023-05-21T11:27:09.639Z,27.90
2023-05-21T11:29:41.233Z,27.60
2023-05-21T11:32:10.711Z,27.70
2023-05-21T11:34:43.429Z,27.90
2023-05-21T11:37:31.937Z,27.80
2023-05-21T11:40:18.214Z,27.80
2023-05-21T11:42:54.104Z,28.10
2023-05-21T11:45:22.996Z,28.10
2023-05-21T11:47:52.051Z,28.20
2023-05-21T11:50:20.624Z,28.00
2023-05-21T11:52:49.577Z,27.90
2023-05-21T11:55:21.955Z,28.10
2023-05-21T11:57:54.624Z,28.20
2023-05-21T12:00:23.004Z,28.30
2023-05-21T12:02:52.559Z,28.40
2023-05-21T12:05:20.894Z,28.10
2023-05-21T12:07:52.450Z,28.10
2023-05-21T12:10:23.799Z,27.90
2023-05-21T12:12:56.960Z,28.00
2023-05-21T12:15:26.279Z,28.00
2023-05-21T12:17:55.188Z,28.10
2023-05-21T12:20:23.781Z,28.20
2023-05-21T12:22:51.704Z,28.10
2023-05-21T12:25:20.950Z,28.00
2023-05-21T12:27:50.887Z,28.30
2023-05-21T12:30:20.612Z,28.30
2023-05-21T12:32:49.706Z,28.50
2023-05-21T12:35:24.417Z,28.20
2023-05-21T12:37:52.942Z,28.30
2023-05-21T12:40:22.080Z,28.20
2023-05-21T12:42:50.936Z,28.30
2023-05-21T12:45:22.613Z,28.50
2023-05-21T12:47:55.999Z,28.40
2023-05-21T12:50:24.717Z,28.30
2023-05-21T12:52:56.126Z,28.40
2023-05-21T12:55:25.626Z,28.70
2023-05-21T12:58:03.285Z,28.60
2023-05-21T13:00:33.946Z,28.60
2023-05-21T13:03:01.991Z,28.80
2023-05-21T13:05:30.041Z,29.00
2023-05-21T13:07:57.970Z,28.80
2023-05-21T13:10:25.880Z,28.60
2023-05-21T13:12:53.708Z,28.60
2023-05-21T13:15:22.004Z,28.90
2023-05-21T13:17:53.678Z,29.30
2023-05-21T13:20:26.302Z,29.60
2023-05-21T13:22:54.586Z,29.50
2023-05-21T13:25:28.644Z,29.30
2023-05-21T13:27:57.501Z,29.30
2023-05-21T13:30:25.657Z,29.40
2023-05-21T13:32:55.921Z,29.40
2023-05-21T13:35:23.957Z,29.20
2023-05-21T13:37:52.115Z,29.40
2023-05-21T13:40:20.159Z,28.70
2023-05-21T13:42:49.251Z,28.60
2023-05-21T13:45:18.825Z,28.60
2023-05-21T13:47:47.990Z,28.70
2023-05-21T13:50:17.643Z,28.70
2023-05-21T13:52:46.005Z,28.60
2023-05-21T13:55:15.728Z,28.60
2023-05-21T13:57:44.178Z,28.50
2023-05-21T14:00:15.185Z,28.40
2023-05-21T14:02:44.108Z,28.20
2023-05-21T14:05:12.698Z,28.10
2023-05-21T14:07:42.593Z,28.10
2023-05-21T14:10:11.202Z,28.10
2023-05-21T14:12:40.609Z,28.10
2023-05-21T14:15:09.130Z,28.20
2023-05-21T14:17:37.106Z,28.40
2023-05-21T14:20:06.242Z,28.60
2023-05-21T14:22:34.140Z,28.40
2023-05-21T14:25:03.459Z,28.50
2023-05-21T14:27:31.403Z,28.50
2023-05-21T14:29:59.247Z,28.50
2023-05-21T14:32:27.295Z,28.40
2023-05-21T14:34:56.780Z,28.30
2023-05-21T14:37:24.698Z,28.30
2023-05-21T14:39:52.561Z,28.40
2023-05-21T14:42:21.811Z,28.60
2023-05-21T14:44:49.686Z,28.90
2023-05-21T14:47:17.654Z,28.90
2023-05-21T14:49:46.713Z,29.10
2023-05-21T14:52:14.622Z,29.00
2023-05-21T14:54:42.573Z,29.00
2023-05-21T14:57:10.476Z,28.50
2023-05-21T14:59:39.852Z,28.10
2023-05-21T15:02:07.820Z,28.10
2023-05-21T15:04:35.763Z,27.90
2023-05-21T15:07:03.647Z,27.70
2023-05-21T15:09:31.499Z,27.40
2023-05-21T15:11:59.376Z,27.10
2023-05-21T15:14:27.208Z,26.80
2023-05-21T15:16:56.395Z,26.90
2023-05-21T15:19:24.300Z,26.90
2023-05-21T15:21:52.359Z,27.10
2023-05-21T15:24:20.294Z,27.30
2023-05-21T15:26:49.383Z,27.40
2023-05-21T15:29:17.322Z,27.50
2023-05-21T15:31:45.170Z,27.60
2023-05-21T15:34:14.618Z,27.70
2023-05-21T15:36:42.511Z,27.60
2023-05-21T15:39:10.506Z,27.80
2023-05-21T15:41:38.603Z,28.00
2023-05-21T15:44:06.666Z,28.10
2023-05-21T15:46:34.787Z,28.10
2023-05-21T15:49:02.721Z,28.10
2023-05-21T15:51:32.000Z,27.80
2023-05-21T15:53:59.994Z,27.60
2023-05-21T15:56:27.918Z,27.50
2023-05-21T15:58:58.468Z,27.40
2023-05-21T16:01:27.182Z,27.30
2023-05-21T16:03:55.266Z,27.20
2023-05-21T16:06:23.412Z,27.30
2023-05-21T16:08:52.687Z,27.50
2023-05-21T16:11:21.405Z,27.80
2023-05-21T16:13:49.246Z,27.90
2023-05-21T16:16:17.280Z,27.80
2023-05-21T16:18:45.369Z,27.90
2023-05-21T16:21:13.490Z,28.00
2023-05-21T16:23:41.424Z,28.20
2023-05-21T16:26:11.102Z,28.50
2023-05-21T16:28:39.356Z,28.70
2023-05-21T16:31:08.424Z,29.00
2023-05-21T16:33:36.320Z,29.10
2023-05-21T16:36:04.278Z,29.00
2023-05-21T16:38:32.348Z,28.70
2023-05-21T16:41:00.180Z,28.70
2023-05-21T16:43:29.394Z,28.40
2023-05-21T16:45:57.280Z,28.00
2023-05-21T16:48:25.204Z,27.80
2023-05-21T16:50:53.160Z,27.70
2023-05-21T16:53:21.211Z,27.60
2023-05-21T16:55:49.198Z,27.60
2023-05-21T16:58:17.042Z,27.50
2023-05-21T17:00:46.864Z,27.50
2023-05-21T17:03:15.987Z,27.30
2023-05-21T17:05:44.104Z,27.20
2023-05-21T17:08:12.168Z,27.10
2023-05-21T17:10:40.117Z,27.00
2023-05-21T17:13:20.671Z,26.90
2023-05-21T17:15:51.738Z,26.80
2023-05-21T17:18:19.765Z,26.70
2023-05-21T17:20:47.848Z,26.60
2023-05-21T17:23:15.927Z,26.60
2023-05-21T17:25:43.928Z,26.50
2023-05-21T17:28:12.363Z,26.40
2023-05-21T17:30:40.412Z,26.30
2023-05-21T17:33:10.411Z,26.20
2023-05-21T17:35:39.384Z,26.20
2023-05-21T17:38:08.206Z,26.10
2023-05-21T17:40:36.136Z,26.10
2023-05-21T17:43:04.333Z,26.10
2023-05-21T17:45:32.403Z,26.10
2023-05-21T17:48:00.801Z,26.10
2023-05-21T17:50:30.255Z,26.10
2023-05-21T17:52:58.172Z,26.00
2023-05-21T17:55:26.141Z,26.00
2023-05-21T17:57:54.098Z,25.90
2023-05-21T18:00:22.397Z,25.90
2023-05-21T18:02:50.447Z,25.80
2023-05-21T18:05:18.646Z,25.70
2023-05-21T18:07:48.224Z,25.60
2023-05-21T18:10:16.458Z,25.60
2023-05-21T18:12:46.207Z,25.60
2023-05-21T18:15:15.636Z,25.50
2023-05-21T18:17:43.797Z,25.50
2023-05-21T18:20:13.190Z,25.40
2023-05-21T18:22:41.230Z,25.40
2023-05-21T18:25:12.603Z,25.30
2023-05-21T18:27:40.655Z,25.20
2023-05-21T18:30:10.177Z,25.10
2023-05-21T18:32:39.446Z,25.00
2023-05-21T18:35:10.863Z,24.90
2023-05-21T18:37:42.007Z,24.80
2023-05-21T18:40:13.111Z,24.70
2023-05-21T18:42:41.296Z,24.60
2023-05-21T18:45:11.118Z,24.60
2023-05-21T18:47:40.422Z,24.50
2023-05-21T18:50:10.403Z,24.40
2023-05-21T18:52:38.353Z,24.20
2023-05-21T18:55:07.261Z,24.10
2023-05-21T18:57:37.853Z,24.00
2023-05-21T19:00:08.269Z,23.90
2023-05-21T19:02:36.532Z,23.80
2023-05-21T19:05:04.564Z,23.60
2023-05-21T19:07:32.935Z,23.50
2023-05-21T19:10:01.222Z,23.30
2023-05-21T19:12:31.293Z,23.20
2023-05-21T19:15:00.686Z,23.00
2023-05-21T19:17:29.008Z,22.70
2023-05-21T19:19:57.582Z,22.50
2023-05-21T19:22:26.363Z,22.40
2023-05-21T19:24:54.720Z,22.30
2023-05-21T19:27:22.837Z,22.30
2023-05-21T19:29:51.750Z,22.20
2023-05-21T19:32:23.570Z,22.10
2023-05-21T19:34:51.590Z,22.00
2023-05-21T19:37:19.938Z,22.00
2023-05-21T19:39:50.118Z,21.90
2023-05-21T19:42:18.736Z,21.90
2023-05-21T19:44:46.763Z,21.80
2023-05-21T19:47:14.985Z,21.80
2023-05-21T19:49:44.392Z,21.70
2023-05-21T19:52:12.459Z,21.60
2023-05-21T19:54:40.435Z,21.60
2023-05-21T19:57:10.180Z,21.50
2023-05-21T19:59:39.533Z,21.50
2023-05-21T20:02:08.239Z,21.40
2023-05-21T20:04:36.102Z,21.40
2023-05-21T20:07:05.900Z,21.30
2023-05-21T20:09:33.812Z,21.30
2023-05-21T20:12:02.037Z,21.30
2023-05-21T20:14:33.364Z,21.20
2023-05-21T20:17:01.780Z,21.20
2023-05-21T20:19:30.464Z,21.20
2023-05-21T20:21:58.484Z,21.10
2023-05-21T20:24:27.799Z,21.00
2023-05-21T20:26:56.121Z,20.90
2023-05-21T20:29:24.067Z,20.90
2023-05-21T20:31:52.309Z,20.90
2023-05-21T20:34:21.620Z,20.80
2023-05-21T20:36:49.908Z,20.80
2023-05-21T20:39:19.031Z,20.70
2023-05-21T20:41:48.489Z,20.70
2023-05-21T20:44:16.950Z,20.70
2023-05-21T20:46:44.879Z,20.60
2023-05-21T20:49:12.829Z,20.60
2023-05-21T20:51:41.469Z,20.50
2023-05-21T20:54:12.072Z,20.50
2023-05-21T20:56:42.829Z,20.50
2023-05-21T20:59:12.913Z,20.50
2023-05-21T21:01:41.565Z,20.40
2023-05-21T21:04:09.894Z,20.40
2023-05-21T21:06:38.639Z,20.30
2023-05-21T21:09:06.707Z,20.20
2023-05-21T21:11:34.826Z,20.20
2023-05-21T21:14:03.625Z,20.20
2023-05-21T21:16:32.975Z,20.10
2023-05-21T21:19:01.003Z,20.00
2023-05-21T21:21:29.370Z,20.00
2023-05-21T21:23:57.399Z,19.90
2023-05-21T21:26:26.623Z,19.80
2023-05-21T21:28:56.154Z,19.70
2023-05-21T21:31:24.594Z,19.70
2023-05-21T21:33:57.509Z,19.70
2023-05-21T21:36:25.440Z,19.60
2023-05-21T21:38:53.363Z,19.50
2023-05-21T21:41:22.399Z,19.50
2023-05-21T21:43:51.668Z,19.50
2023-05-21T21:46:19.714Z,19.40
2023-05-21T21:48:47.648Z,19.30
2023-05-21T21:51:17.002Z,19.20
2023-05-21T21:53:45.086Z,18.90
2023-05-21T21:56:13.109Z,18.70
2023-05-21T21:58:41.078Z,18.50
2023-05-21T22:01:09.421Z,18.30
2023-05-21T22:03:37.683Z,18.20
2023-05-21T22:06:06.128Z,18.10
2023-05-21T22:08:35.398Z,18.10
2023-05-21T22:11:03.371Z,18.00
2023-05-21T22:13:31.355Z,17.80
2023-05-21T22:15:59.453Z,17.70
2023-05-21T22:18:39.654Z,17.60
2023-05-21T22:21:09.423Z,17.50
2023-05-21T22:23:39.574Z,17.50
2023-05-21T22:26:07.868Z,17.30
2023-05-21T22:28:35.962Z,17.20
2023-05-21T22:31:04.018Z,17.20
2023-05-21T22:33:32.373Z,17.10
2023-05-21T22:36:00.328Z,17.00
2023-05-21T22:38:28.505Z,16.90
2023-05-21T22:40:57.964Z,16.80
2023-05-21T22:43:27.012Z,16.80
2023-05-21T22:45:54.980Z,16.80
2023-05-21T22:48:22.963Z,16.70
2023-05-21T22:50:53.588Z,16.70
2023-05-21T22:53:21.794Z,16.60
2023-05-21T22:55:49.999Z,16.60
2023-05-21T22:58:19.503Z,16.50
2023-05-21T23:00:48.738Z,16.40
2023-05-21T23:03:17.299Z,16.50
2023-05-21T23:05:45.795Z,16.70
2023-05-21T23:08:13.948Z,16.80
2023-05-21T23:10:41.998Z,17.00
2023-05-21T23:13:09.935Z,17.10
2023-05-21T23:15:39.415Z,17.20
2023-05-21T23:18:08.806Z,17.20
2023-05-21T23:20:39.543Z,17.30
2023-05-21T23:23:07.793Z,17.30
2023-05-21T23:25:36.490Z,17.30
2023-05-21T23:28:04.675Z,17.30
2023-05-21T23:30:32.630Z,17.20
2023-05-21T23:33:02.049Z,17.10
2023-05-21T23:35:30.204Z,17.00
2023-05-21T23:37:58.376Z,16.80
2023-05-21T23:40:26.437Z,16.70
2023-05-21T23:42:54.374Z,16.60
2023-05-21T23:45:22.448Z,16.50
2023-05-21T23:47:50.511Z,16.50
2023-05-21T23:50:19.869Z,16.50
2023-05-21T23:52:47.865Z,16.60
2023-05-21T23:55:15.904Z,16.70
2023-05-21T23:57:43.798Z,16.80
